Time;durP1;ratioP1;P1;durP2;ratioP2;P2;SDS_P1;SDS_P2;PMS_P1;PMS_P2;Temp;Humidity;BMP_temperature;BMP_pressure;BME280_temperature;BME280_humidity;BME280_pressure;Samples;Min_cycle;Max_cycle;Signal;HPM_P1;HPM_P2
2021/05/18 00:00:26;;;;;;;0.97;0.97;;;;;;;;;;5001421;28;20624;-45
2021/05/18 00:02:52;;;;;;;0.90;0.90;;;;;;;;;;4990209;28;20644;-45
2021/05/18 00:05:18;;;;;;;2.30;1.07;;;;;;;;;;4998116;28;20515;-46
2021/05/18 00:07:53;;;;;;;1.63;1.30;;;;;;;;;;5005062;28;20221;-44
2021/05/18 00:13:02;;;;;;;1.03;1.03;;;;;;;;;;5011097;28;20603;-45
2021/05/18 00:15:28;;;;;;;1.10;1.10;;;;;;;;;;5003468;28;20967;-44
2021/05/18 00:17:53;;;;;;;0.90;0.90;;;;;;;;;;4994262;28;20290;-44
2021/05/18 00:20:19;;;;;;;1.67;1.00;;;;;;;;;;5005251;28;20206;-45
2021/05/18 00:22:44;;;;;;;1.00;1.00;;;;;;;;;;5007199;28;20254;-45
2021/05/18 00:25:10;;;;;;;1.00;1.00;;;;;;;;;;4998367;28;20234;-44
2021/05/18 00:27:35;;;;;;;1.67;1.33;;;;;;;;;;5006232;28;20176;-45
2021/05/18 00:30:00;;;;;;;1.13;0.80;;;;;;;;;;4998268;28;20181;-45
2021/05/18 00:32:26;;;;;;;1.27;1.00;;;;;;;;;;5002763;28;20856;-45
2021/05/18 00:34:56;;;;;;;1.63;1.33;;;;;;;;;;5009167;28;20812;-45
2021/05/18 00:37:22;;;;;;;1.57;1.33;;;;;;;;;;4997566;28;20179;-46
2021/05/18 00:39:48;;;;;;;0.97;0.97;;;;;;;;;;5003313;28;20656;-45
2021/05/18 00:42:14;;;;;;;1.03;1.00;;;;;;;;;;5002835;28;20600;-45
2021/05/18 00:44:40;;;;;;;0.90;0.90;;;;;;;;;;4994237;28;20652;-45
2021/05/18 00:47:05;;;;;;;1.20;1.20;;;;;;;;;;4994873;28;20594;-44
2021/05/18 00:49:30;;;;;;;1.20;1.10;;;;;;;;;;4993738;28;20403;-45
2021/05/18 00:51:55;;;;;;;1.48;1.35;;;;;;;;;;5002125;28;20235;-45
2021/05/18 00:54:24;;;;;;;1.10;1.10;;;;;;;;;;5006661;28;20178;-45
2021/05/18 00:59:34;;;;;;;0.90;0.90;;;;;;;;;;4997444;28;20675;-45
2021/05/18 01:01:59;;;;;;;1.50;1.20;;;;;;;;;;4998698;28;21033;-45
2021/05/18 01:04:24;;;;;;;1.30;1.20;;;;;;;;;;5001482;28;20207;-45
2021/05/18 01:06:49;;;;;;;1.10;1.10;;;;;;;;;;5008140;28;20757;-45
2021/05/18 01:09:14;;;;;;;1.05;1.02;;;;;;;;;;4996328;28;20249;-45
2021/05/18 01:11:41;;;;;;;1.40;1.30;;;;;;;;;;4998497;28;20338;-46
2021/05/18 01:14:12;;;;;;;1.50;1.40;;;;;;;;;;4998599;28;20178;-46
2021/05/18 01:16:40;;;;;;;1.13;1.13;;;;;;;;;;5003988;28;20605;-45
2021/05/18 01:19:05;;;;;;;1.30;1.20;;;;;;;;;;5000238;28;20772;-47
2021/05/18 01:21:31;;;;;;;2.40;1.30;;;;;;;;;;4988972;28;21016;-44
2021/05/18 01:23:56;;;;;;;1.70;1.60;;;;;;;;;;4993771;28;20182;-45
2021/05/18 01:26:22;;;;;;;1.57;1.47;;;;;;;;;;5010153;28;20170;-45
2021/05/18 01:28:48;;;;;;;1.30;1.30;;;;;;;;;;5001990;28;20185;-45
2021/05/18 01:31:16;;;;;;;1.60;1.50;;;;;;;;;;4989394;28;20641;-44
2021/05/18 01:33:41;;;;;;;1.73;1.30;;;;;;;;;;4992530;28;20549;-46
2021/05/18 01:36:08;;;;;;;2.83;1.47;;;;;;;;;;4999718;28;20651;-45
2021/05/18 01:38:50;;;;;;;1.80;1.70;;;;;;;;;;5004080;28;20205;-44
2021/05/18 01:44:19;;;;;;;1.60;1.50;;;;;;;;;;5024492;28;20674;-45
2021/05/18 01:46:45;;;;;;;1.70;1.60;;;;;;;;;;5024078;28;20698;-44
2021/05/18 01:49:11;;;;;;;2.20;1.70;;;;;;;;;;5015400;28;20956;-45
2021/05/18 01:51:41;;;;;;;1.90;1.80;;;;;;;;;;5000487;28;20612;-44
2021/05/18 01:54:08;;;;;;;1.63;1.53;;;;;;;;;;5006265;28;20613;-45
2021/05/18 01:56:54;;;;;;;2.20;2.00;;;;;;;;;;4990138;28;20663;-44
2021/05/18 01:59:21;;;;;;;3.13;2.03;;;;;;;;;;5001934;28;20671;-45
2021/05/18 02:01:47;;;;;;;2.30;2.20;;;;;;;;;;4991760;28;21187;-45
2021/05/18 02:04:23;;;;;;;2.40;1.80;;;;;;;;;;4995981;28;21425;-45
2021/05/18 02:06:49;;;;;;;2.13;2.03;;;;;;;;;;4995992;28;20600;-45
2021/05/18 02:09:14;;;;;;;2.43;2.23;;;;;;;;;;4998396;28;20608;-45
2021/05/18 02:11:39;;;;;;;2.40;2.17;;;;;;;;;;5000398;28;20312;-44
2021/05/18 02:14:07;;;;;;;2.37;2.17;;;;;;;;;;5004544;28;20291;-45
2021/05/18 02:16:36;;;;;;;2.83;2.30;;;;;;;;;;4994959;28;20174;-45
2021/05/18 02:19:20;;;;;;;2.30;2.00;;;;;;;;;;5008378;28;20659;-45
2021/05/18 02:21:57;;;;;;;2.33;2.20;;;;;;;;;;4995494;28;20711;-45
2021/05/18 02:27:20;;;;;;;2.60;2.40;;;;;;;;;;4994849;28;20692;-45
2021/05/18 02:29:45;;;;;;;2.90;2.60;;;;;;;;;;4994575;28;20755;-45
2021/05/18 02:32:10;;;;;;;2.33;2.23;;;;;;;;;;4998752;28;20659;-46
2021/05/18 02:34:35;;;;;;;2.87;2.67;;;;;;;;;;4994978;28;20179;-46
2021/05/18 02:37:02;;;;;;;2.97;2.77;;;;;;;;;;5002689;28;20189;-45
2021/05/18 02:39:27;;;;;;;2.93;2.73;;;;;;;;;;4990198;28;20200;-44
2021/05/18 02:41:53;;;;;;;3.13;2.83;;;;;;;;;;4992698;28;20597;-45
2021/05/18 02:44:42;;;;;;;3.57;3.27;;;;;;;;;;5004271;28;20178;-44
2021/05/18 02:49:51;;;;;;;4.37;3.70;;;;;;;;;;4988716;28;21024;-45
2021/05/18 02:52:16;;;;;;;4.05;3.75;;;;;;;;;;5001565;28;21151;-45
2021/05/18 02:54:46;;;;;;;3.60;3.40;;;;;;;;;;4999010;28;20477;-46
2021/05/18 02:57:12;;;;;;;3.40;3.20;;;;;;;;;;4992763;28;20704;-46
2021/05/18 02:59:37;;;;;;;3.70;3.40;;;;;;;;;;4998672;28;20743;-46
2021/05/18 03:02:02;;;;;;;4.63;4.25;;;;;;;;;;5000187;28;21162;-45
2021/05/18 03:04:29;;;;;;;4.60;4.20;;;;;;;;;;5004204;28;20181;-46
2021/05/18 03:06:54;;;;;;;5.00;4.37;;;;;;;;;;5005596;28;20184;-45
2021/05/18 03:09:20;;;;;;;5.13;4.63;;;;;;;;;;4998925;28;21170;-46
2021/05/18 03:11:46;;;;;;;7.40;5.00;;;;;;;;;;5003669;28;20240;-45
2021/05/18 03:14:12;;;;;;;5.10;4.70;;;;;;;;;;4989932;28;20174;-46
2021/05/18 03:16:38;;;;;;;5.43;5.00;;;;;;;;;;5009296;28;20601;-45
2021/05/18 03:19:04;;;;;;;7.60;4.97;;;;;;;;;;5001406;28;20206;-46
2021/05/18 03:21:29;;;;;;;4.80;4.40;;;;;;;;;;5006587;28;21054;-46
2021/05/18 03:23:55;;;;;;;4.87;4.47;;;;;;;;;;5006547;28;20662;-46
2021/05/18 03:26:20;;;;;;;5.90;5.40;;;;;;;;;;4993336;28;20754;-46
2021/05/18 03:28:47;;;;;;;5.50;5.10;;;;;;;;;;4991771;28;20192;-46
2021/05/18 03:36:40;;;;;;;5.90;5.50;;;;;;;;;;5004152;28;20626;-45
2021/05/18 03:39:05;;;;;;;6.22;5.72;;;;;;;;;;5002139;28;20656;-46
2021/05/18 03:41:41;;;;;;;7.23;6.63;;;;;;;;;;5000463;28;20216;-46
2021/05/18 03:44:23;;;;;;;6.80;6.20;;;;;;;;;;5006765;28;20174;-47
2021/05/18 04:02:59;;;;;;;7.20;6.50;;;;;;;;;;4989233;28;21212;-44
2021/05/18 04:23:59;;;;;;;6.90;6.37;;;;;;;;;;4982660;28;20616;-45
2021/05/18 04:38:42;;;;;;;6.65;6.15;;;;;;;;;;4989613;28;20614;-45
2021/05/18 04:38:43;;;;;;;7.20;6.50;;;;;;;;;;4994859;28;20196;-46
2021/05/18 04:51:05;;;;;;;6.07;5.57;;;;;;;;;;5011283;28;21049;-45
2021/05/18 04:59:17;;;;;;;8.47;7.70;;;;;;;;;;5019390;28;20638;-46
2021/05/18 05:07:01;;;;;;;9.70;8.90;;;;;;;;;;5011639;28;20599;-46
2021/05/18 05:14:46;;;;;;;11.90;10.80;;;;;;;;;;5018009;28;20627;-46
2021/05/18 05:17:12;;;;;;;12.27;11.17;;;;;;;;;;5007983;28;20844;-46
2021/05/18 05:19:37;;;;;;;13.70;12.60;;;;;;;;;;5022368;28;20218;-44
2021/05/18 05:22:03;;;;;;;14.57;13.07;;;;;;;;;;5016114;28;20223;-44
2021/05/18 05:24:28;;;;;;;14.53;13.33;;;;;;;;;;5013077;28;20616;-44
2021/05/18 05:26:54;;;;;;;13.30;12.10;;;;;;;;;;4998714;28;20945;-43
2021/05/18 05:29:19;;;;;;;16.17;14.30;;;;;;;;;;5009046;28;20604;-45
2021/05/18 05:31:46;;;;;;;13.93;12.73;;;;;;;;;;4994243;28;20185;-46
2021/05/18 05:34:11;;;;;;;15.03;12.33;;;;;;;;;;4990249;28;20594;-45
2021/05/18 05:36:39;;;;;;;13.20;11.90;;;;;;;;;;4988539;28;20609;-46
2021/05/18 05:39:10;;;;;;;12.87;11.70;;;;;;;;;;4991894;28;20212;-46
2021/05/18 05:41:35;;;;;;;13.77;12.53;;;;;;;;;;4997727;28;20700;-45
2021/05/18 05:44:01;;;;;;;12.50;11.30;;;;;;;;;;4989794;28;20671;-45
2021/05/18 05:46:26;;;;;;;13.27;12.07;;;;;;;;;;4994263;28;20895;-47
2021/05/18 05:48:54;;;;;;;14.70;13.37;;;;;;;;;;5006082;28;20256;-46
2021/05/18 05:51:26;;;;;;;11.70;10.70;;;;;;;;;;4988692;28;20173;-45
2021/05/18 05:53:52;;;;;;;11.60;10.60;;;;;;;;;;4988543;28;20621;-46
2021/05/18 05:56:17;;;;;;;12.27;11.13;;;;;;;;;;4992941;28;20600;-47
2021/05/18 05:58:43;;;;;;;10.43;9.53;;;;;;;;;;4998820;28;20648;-46
2021/05/18 06:01:08;;;;;;;11.97;10.97;;;;;;;;;;4999358;28;20261;-46
2021/05/18 06:03:33;;;;;;;11.77;10.67;;;;;;;;;;4995858;28;20188;-46
2021/05/18 06:05:59;;;;;;;10.50;9.60;;;;;;;;;;4985823;28;20182;-46
2021/05/18 06:08:24;;;;;;;12.10;11.00;;;;;;;;;;5002915;28;20195;-45
2021/05/18 06:10:53;;;;;;;10.00;9.20;;;;;;;;;;5006756;28;20233;-44
2021/05/18 06:13:43;;;;;;;12.67;11.57;;;;;;;;;;4990992;28;20205;-45
2021/05/18 06:34:00;;;;;;;12.47;11.40;;;;;;;;;;5002395;28;20963;-46
2021/05/18 06:43:24;;;;;;;12.60;11.53;;;;;;;;;;5014226;28;21203;-48
2021/05/18 06:48:18;;;;;;;11.80;10.77;;;;;;;;;;5012540;28;20601;-45
2021/05/18 06:50:43;;;;;;;11.87;10.93;;;;;;;;;;5021809;28;21134;-45
2021/05/18 06:53:08;;;;;;;10.97;10.07;;;;;;;;;;5011422;28;20166;-44
2021/05/18 06:55:35;;;;;;;11.37;10.37;;;;;;;;;;5017010;28;20169;-46
2021/05/18 06:58:04;;;;;;;10.50;9.60;;;;;;;;;;5006212;28;20593;-46
2021/05/18 07:00:30;;;;;;;10.60;9.70;;;;;;;;;;5005563;28;20603;-46
2021/05/18 07:02:57;;;;;;;10.97;10.03;;;;;;;;;;5001966;28;21161;-45
2021/05/18 07:05:30;;;;;;;11.20;10.30;;;;;;;;;;5017065;28;20185;-45
2021/05/18 07:10:23;;;;;;;10.40;9.50;;;;;;;;;;5025519;28;20683;-46
2021/05/18 07:12:49;;;;;;;9.50;8.80;;;;;;;;;;5008156;28;21047;-45
2021/05/18 07:15:14;;;;;;;10.00;9.10;;;;;;;;;;4993502;28;20182;-45
2021/05/18 07:17:39;;;;;;;9.30;8.50;;;;;;;;;;4987886;28;20198;-45
2021/05/18 07:20:05;;;;;;;8.87;8.07;;;;;;;;;;4986436;28;20173;-45
2021/05/18 07:22:30;;;;;;;9.07;8.37;;;;;;;;;;4988402;28;20722;-45
2021/05/18 07:24:55;;;;;;;10.80;9.93;;;;;;;;;;4991520;28;20307;-45
2021/05/18 07:27:21;;;;;;;11.27;9.20;;;;;;;;;;5007190;28;20189;-45
2021/05/18 07:29:46;;;;;;;10.47;9.57;;;;;;;;;;5002370;28;20186;-46
2021/05/18 07:32:11;;;;;;;10.63;9.73;;;;;;;;;;4988179;28;20176;-45
2021/05/18 07:34:36;;;;;;;15.48;14.13;;;;;;;;;;4986459;28;20612;-44
2021/05/18 07:37:02;;;;;;;11.90;10.93;;;;;;;;;;4987924;28;20175;-45
2021/05/18 07:39:27;;;;;;;50.50;42.03;;;;;;;;;;4991545;28;20332;-44
2021/05/18 07:41:52;;;;;;;13.53;12.23;;;;;;;;;;5003273;28;20229;-45
2021/05/18 07:44:17;;;;;;;10.77;9.90;;;;;;;;;;4990664;28;20193;-45
2021/05/18 07:46:43;;;;;;;9.93;9.13;;;;;;;;;;4986355;28;20531;-45
2021/05/18 07:49:22;;;;;;;8.67;7.97;;;;;;;;;;4985845;28;20185;-45
2021/05/18 08:00:15;;;;;;;8.40;7.50;;;;;;;;;;5003865;28;21135;-45
2021/05/18 08:05:28;;;;;;;7.87;7.27;;;;;;;;;;4986436;28;20701;-45
2021/05/18 08:07:54;;;;;;;8.07;7.37;;;;;;;;;;4987862;28;20602;-45
2021/05/18 08:10:32;;;;;;;8.43;7.63;;;;;;;;;;4983435;28;20687;-45
2021/05/18 08:12:57;;;;;;;9.17;8.30;;;;;;;;;;4995535;28;20590;-46
2021/05/18 08:15:33;;;;;;;8.43;7.63;;;;;;;;;;4984115;28;20612;-45
2021/05/18 08:18:11;;;;;;;8.47;7.77;;;;;;;;;;4987336;28;20546;-45
2021/05/18 09:34:42;;;;;;;5.40;5.00;;;;;;;;;;4987805;28;20612;-46
2021/05/18 09:42:11;;;;;;;6.10;4.73;;;;;;;;;;4990399;28;20615;-45
2021/05/18 09:47:49;;;;;;;4.50;4.17;;;;;;;;;;4990048;28;20604;-46
2021/05/18 10:15:36;;;;;;;4.80;4.40;;;;;;;;;;4987775;28;20557;-44
2021/05/18 10:35:49;;;;;;;5.60;5.10;;;;;;;;;;4987650;28;20661;-44
2021/05/18 10:38:24;;;;;;;5.83;5.40;;;;;;;;;;4988907;28;20634;-45
2021/05/18 10:40:50;;;;;;;5.90;5.27;;;;;;;;;;4987147;28;20584;-44
2021/05/18 10:43:15;;;;;;;5.10;4.70;;;;;;;;;;4986926;28;20610;-45
2021/05/18 10:45:53;;;;;;;5.60;5.10;;;;;;;;;;5006948;28;20610;-45
2021/05/18 10:48:37;;;;;;;6.47;4.40;;;;;;;;;;4991825;28;20191;-45
2021/05/18 10:51:21;;;;;;;8.70;5.57;;;;;;;;;;4988992;28;20638;-45
2021/05/18 10:54:05;;;;;;;5.40;5.00;;;;;;;;;;4998165;28;20967;-46
2021/05/18 10:56:30;;;;;;;6.03;5.17;;;;;;;;;;5004208;28;21054;-46
2021/05/18 10:58:55;;;;;;;7.10;4.97;;;;;;;;;;5006619;28;20737;-45
2021/05/18 11:01:21;;;;;;;5.95;5.45;;;;;;;;;;5004229;28;20279;-46
2021/05/18 11:03:46;;;;;;;5.10;4.70;;;;;;;;;;4988446;28;20190;-45
2021/05/18 11:06:11;;;;;;;5.67;4.83;;;;;;;;;;4986675;28;20256;-45
2021/05/18 11:08:36;;;;;;;5.13;4.72;;;;;;;;;;4989086;28;20574;-48
2021/05/18 11:11:04;;;;;;;6.97;5.93;;;;;;;;;;4986280;28;20231;-46
2021/05/18 11:13:30;;;;;;;7.10;5.37;;;;;;;;;;4986434;28;20256;-46
2021/05/18 11:15:55;;;;;;;5.33;4.90;;;;;;;;;;4988734;28;20662;-46
2021/05/18 11:18:28;;;;;;;6.40;5.53;;;;;;;;;;4986693;28;20730;-46
2021/05/18 11:20:59;;;;;;;5.83;5.23;;;;;;;;;;4988647;28;20188;-45
2021/05/18 11:25:54;;;;;;;5.30;4.90;;;;;;;;;;4985863;28;20690;-45
2021/05/18 11:28:20;;;;;;;5.17;4.60;;;;;;;;;;4987603;28;20512;-45
2021/05/18 11:30:47;;;;;;;5.90;5.20;;;;;;;;;;4987986;28;20602;-45
2021/05/18 11:33:12;;;;;;;5.90;5.40;;;;;;;;;;4984564;28;21061;-46
2021/05/18 11:35:38;;;;;;;5.60;5.20;;;;;;;;;;4988130;28;20582;-47
2021/05/18 11:38:15;;;;;;;6.23;5.30;;;;;;;;;;4986143;28;20179;-46
2021/05/18 11:40:41;;;;;;;6.17;5.20;;;;;;;;;;4988133;28;20547;-46
2021/05/18 11:43:15;;;;;;;6.43;5.23;;;;;;;;;;4989070;28;21159;-46
2021/05/18 11:45:40;;;;;;;6.70;5.40;;;;;;;;;;4986139;28;20664;-46
2021/05/18 11:48:11;;;;;;;6.53;5.00;;;;;;;;;;4988034;28;20610;-47
2021/05/18 11:50:36;;;;;;;6.10;5.50;;;;;;;;;;4987816;28;20355;-46
2021/05/18 11:53:01;;;;;;;9.13;6.82;;;;;;;;;;4984327;28;20711;-45
2021/05/18 11:55:28;;;;;;;7.47;6.78;;;;;;;;;;4993891;28;20168;-45
2021/05/18 11:57:54;;;;;;;7.47;6.83;;;;;;;;;;5005594;28;20245;-44
2021/05/18 12:00:28;;;;;;;7.33;6.67;;;;;;;;;;4998137;28;21025;-45
2021/05/18 12:02:59;;;;;;;7.43;6.83;;;;;;;;;;5007353;28;20613;-46
2021/05/18 12:05:24;;;;;;;7.23;6.60;;;;;;;;;;5011593;28;20723;-46
2021/05/18 12:07:49;;;;;;;7.50;6.90;;;;;;;;;;5009671;28;21120;-45
2021/05/18 12:10:25;;;;;;;8.77;7.95;;;;;;;;;;5007542;28;20262;-46
2021/05/18 12:12:51;;;;;;;7.77;7.17;;;;;;;;;;5009239;28;20210;-45
2021/05/18 12:15:16;;;;;;;7.72;7.05;;;;;;;;;;5009497;28;20582;-46
2021/05/18 12:17:42;;;;;;;7.20;6.53;;;;;;;;;;4998682;28;20606;-46
2021/05/18 12:20:14;;;;;;;8.90;8.00;;;;;;;;;;4989442;28;20209;-45
2021/05/18 12:22:46;;;;;;;7.57;6.87;;;;;;;;;;4990486;28;20189;-46
2021/05/18 12:25:26;;;;;;;8.60;7.80;;;;;;;;;;5009221;28;20611;-47
2021/05/18 12:27:51;;;;;;;7.63;7.03;;;;;;;;;;5007562;28;20578;-45
2021/05/18 12:30:16;;;;;;;6.65;5.95;;;;;;;;;;5009193;28;20583;-45
2021/05/18 12:32:48;;;;;;;5.47;4.97;;;;;;;;;;5007167;28;20175;-45
2021/05/18 12:35:18;;;;;;;6.07;5.57;;;;;;;;;;4990457;28;20229;-46
2021/05/18 12:37:44;;;;;;;5.50;5.10;;;;;;;;;;4989299;28;20606;-49
2021/05/18 12:40:16;;;;;;;4.93;4.50;;;;;;;;;;4987424;28;20645;-45
2021/05/18 12:42:42;;;;;;;5.20;4.70;;;;;;;;;;4990188;28;20611;-45
2021/05/18 12:45:21;;;;;;;5.33;4.90;;;;;;;;;;4988799;28;20632;-45
2021/05/18 12:47:57;;;;;;;5.10;4.60;;;;;;;;;;4989329;28;20621;-46
2021/05/18 12:50:22;;;;;;;5.07;4.67;;;;;;;;;;4987237;28;20584;-45
2021/05/18 12:52:52;;;;;;;5.47;5.00;;;;;;;;;;4989099;28;20564;-46
2021/05/18 12:55:30;;;;;;;3.13;2.90;;;;;;;;;;5003172;28;20230;-46
2021/05/18 12:58:03;;;;;;;2.40;2.30;;;;;;;;;;5010787;28;20564;-45
2021/05/18 13:00:39;;;;;;;2.60;2.40;;;;;;;;;;5007992;28;21198;-45
2021/05/18 13:03:16;;;;;;;3.33;3.03;;;;;;;;;;4993243;28;20698;-45
2021/05/18 13:05:43;;;;;;;3.00;2.80;;;;;;;;;;4990516;28;20584;-46
2021/05/18 13:08:08;;;;;;;3.73;3.30;;;;;;;;;;5004103;28;20600;-45
2021/05/18 13:13:23;;;;;;;4.47;4.13;;;;;;;;;;5022192;28;20218;-46
2021/05/18 13:15:49;;;;;;;5.17;4.67;;;;;;;;;;4988701;28;20603;-46
2021/05/18 13:18:16;;;;;;;4.77;4.30;;;;;;;;;;4988740;28;20642;-46
2021/05/18 13:20:52;;;;;;;4.53;4.13;;;;;;;;;;4990207;28;20573;-46
2021/05/18 13:24:21;;;;;;;4.30;3.90;;;;;;;;;;4990095;28;20618;-47
2021/05/18 13:26:26;;;;;;;4.27;3.60;;;;;;;;;;5008210;28;21071;-46
2021/05/18 13:28:58;;;;;;;4.30;4.00;;;;;;;;;;5009978;28;20696;-46
2021/05/18 13:31:23;;;;;;;5.70;4.20;;;;;;;;;;5005657;28;20589;-46
2021/05/18 13:33:48;;;;;;;4.90;3.60;;;;;;;;;;4990198;28;20657;-46
2021/05/18 13:36:14;;;;;;;5.23;4.33;;;;;;;;;;4991758;28;20183;-46
2021/05/18 13:38:39;;;;;;;5.30;4.53;;;;;;;;;;5008232;28;20199;-47
2021/05/18 13:41:04;;;;;;;4.82;4.43;;;;;;;;;;5012200;28;20648;-46
2021/05/18 13:43:32;;;;;;;5.10;4.70;;;;;;;;;;5005902;28;20264;-46
2021/05/18 13:45:57;;;;;;;5.87;5.37;;;;;;;;;;4997169;28;20182;-46
2021/05/18 13:48:22;;;;;;;6.60;6.00;;;;;;;;;;4992248;28;20597;-46
2021/05/18 13:50:48;;;;;;;6.33;5.67;;;;;;;;;;5007712;28;20193;-46
2021/05/18 13:53:13;;;;;;;6.27;5.13;;;;;;;;;;5005458;28;20186;-46
2021/05/18 13:55:38;;;;;;;5.03;4.70;;;;;;;;;;5008121;28;20244;-46
2021/05/18 13:58:03;;;;;;;4.97;4.57;;;;;;;;;;5001956;28;20228;-46
2021/05/18 14:00:29;;;;;;;6.57;5.18;;;;;;;;;;5000130;28;20194;-46
2021/05/18 14:02:54;;;;;;;4.67;4.37;;;;;;;;;;5014761;28;20657;-45
2021/05/18 14:05:20;;;;;;;7.53;6.73;;;;;;;;;;5019102;28;20547;-46
2021/05/18 14:10:38;;;;;;;7.50;6.83;;;;;;;;;;5001275;28;20706;-46
2021/05/18 14:13:03;;;;;;;6.90;6.30;;;;;;;;;;5004461;28;20987;-46
2021/05/18 14:15:29;;;;;;;7.95;7.20;;;;;;;;;;4993186;28;20686;-46
2021/05/18 14:17:54;;;;;;;8.43;7.63;;;;;;;;;;4996949;28;20204;-46
2021/05/18 14:20:25;;;;;;;7.50;6.80;;;;;;;;;;5001078;28;20872;-46
2021/05/18 14:22:51;;;;;;;6.67;5.70;;;;;;;;;;4992751;28;20632;-46
2021/05/18 14:25:16;;;;;;;6.00;5.17;;;;;;;;;;4994424;28;20633;-46
2021/05/18 14:27:43;;;;;;;7.73;5.60;;;;;;;;;;5006181;28;20594;-45
2021/05/18 14:30:09;;;;;;;7.60;6.90;;;;;;;;;;5000237;28;20258;-46
2021/05/18 14:32:36;;;;;;;6.67;6.00;;;;;;;;;;4994170;28;20618;-47
2021/05/18 14:35:02;;;;;;;7.10;6.40;;;;;;;;;;4991331;28;20633;-46
2021/05/18 14:37:27;;;;;;;5.67;5.27;;;;;;;;;;4998102;28;20606;-46
2021/05/18 14:40:06;;;;;;;7.30;5.13;;;;;;;;;;4987193;28;20212;-46
2021/05/18 14:45:16;;;;;;;6.77;6.17;;;;;;;;;;4989694;28;20643;-46
2021/05/18 14:48:08;;;;;;;5.80;5.20;;;;;;;;;;4991050;28;21153;-46
2021/05/18 14:56:03;;;;;;;6.20;5.53;;;;;;;;;;5002598;28;20692;-47
2021/05/18 14:58:28;;;;;;;6.43;5.77;;;;;;;;;;5010512;28;20732;-46
2021/05/18 15:00:53;;;;;;;6.25;5.60;;;;;;;;;;5003199;28;20502;-45
2021/05/18 15:03:18;;;;;;;6.50;4.72;;;;;;;;;;4995427;28;20288;-45
2021/05/18 15:05:43;;;;;;;7.22;5.20;;;;;;;;;;5003936;28;20184;-46
2021/05/18 15:08:09;;;;;;;5.15;4.63;;;;;;;;;;5001466;28;20176;-45
2021/05/18 15:10:34;;;;;;;5.93;5.20;;;;;;;;;;5003468;28;20674;-45
2021/05/18 15:13:00;;;;;;;4.80;4.50;;;;;;;;;;5002015;28;20245;-45
2021/05/18 15:15:25;;;;;;;5.80;5.30;;;;;;;;;;5000490;28;20184;-46
2021/05/18 15:17:52;;;;;;;6.40;5.30;;;;;;;;;;4990446;28;20287;-45
2021/05/18 15:20:17;;;;;;;4.97;4.57;;;;;;;;;;4986310;28;20238;-46
2021/05/18 15:22:42;;;;;;;4.60;4.20;;;;;;;;;;5003330;28;20583;-45
2021/05/18 15:25:08;;;;;;;4.50;4.10;;;;;;;;;;5012657;28;20205;-45
2021/05/18 15:27:33;;;;;;;4.87;4.40;;;;;;;;;;4997606;28;20175;-46
2021/05/18 15:29:59;;;;;;;5.87;5.27;;;;;;;;;;4992499;28;20251;-46
2021/05/18 15:32:24;;;;;;;5.33;4.50;;;;;;;;;;4989663;28;20177;-47
2021/05/18 15:34:49;;;;;;;4.77;3.83;;;;;;;;;;5002259;28;20184;-46
2021/05/18 15:37:14;;;;;;;4.70;4.30;;;;;;;;;;4995956;28;20188;-49
2021/05/18 15:39:40;;;;;;;5.10;4.60;;;;;;;;;;4993431;28;20583;-46
2021/05/18 15:42:05;;;;;;;5.90;5.00;;;;;;;;;;5000202;28;20172;-45
2021/05/18 15:44:31;;;;;;;4.30;4.00;;;;;;;;;;5006151;28;20186;-46
2021/05/18 15:46:56;;;;;;;4.73;4.43;;;;;;;;;;4997502;28;20184;-46
2021/05/18 15:49:24;;;;;;;7.03;5.63;;;;;;;;;;4993876;28;20206;-45
2021/05/18 15:51:49;;;;;;;5.60;5.10;;;;;;;;;;4986465;28;20188;-46
2021/05/18 15:54:14;;;;;;;7.00;5.63;;;;;;;;;;4981214;28;20578;-46
2021/05/18 15:56:39;;;;;;;8.03;6.33;;;;;;;;;;5002039;28;20739;-47
2021/05/18 15:59:05;;;;;;;6.23;5.70;;;;;;;;;;5004062;28;20197;-46
2021/05/18 16:01:30;;;;;;;5.83;5.33;;;;;;;;;;4983868;28;20197;-46
2021/05/18 16:03:55;;;;;;;6.17;5.57;;;;;;;;;;4987671;28;20202;-46
2021/05/18 16:06:22;;;;;;;6.07;5.50;;;;;;;;;;4995751;28;20199;-46
2021/05/18 16:11:12;;;;;;;6.07;5.57;;;;;;;;;;4991864;28;20689;-47
2021/05/18 16:13:39;;;;;;;6.70;6.10;;;;;;;;;;4993663;28;20262;-46
2021/05/18 16:16:05;;;;;;;11.13;5.77;;;;;;;;;;4994241;28;20225;-46
2021/05/18 16:18:43;;;;;;;4.90;4.50;;;;;;;;;;4982112;28;20642;-46
2021/05/18 16:21:09;;;;;;;4.90;4.50;;;;;;;;;;4991641;28;21252;-45
2021/05/18 16:23:45;;;;;;;4.90;4.60;;;;;;;;;;5000729;28;20897;-45
2021/05/18 16:26:11;;;;;;;5.23;4.40;;;;;;;;;;4993958;28;20177;-46
2021/05/18 16:28:36;;;;;;;5.20;4.80;;;;;;;;;;4985725;28;20616;-46
2021/05/18 16:31:02;;;;;;;5.30;4.40;;;;;;;;;;4995054;28;20197;-46
2021/05/18 16:33:28;;;;;;;5.23;4.73;;;;;;;;;;5004870;28;20185;-46
2021/05/18 16:35:53;;;;;;;5.70;5.07;;;;;;;;;;5004962;28;20900;-46
2021/05/18 16:38:18;;;;;;;5.13;4.67;;;;;;;;;;4994895;28;20180;-45
2021/05/18 16:40:43;;;;;;;5.60;4.57;;;;;;;;;;5001854;28;20258;-46
2021/05/18 16:43:09;;;;;;;5.20;4.80;;;;;;;;;;5011595;28;20179;-45
2021/05/18 16:45:34;;;;;;;5.13;4.73;;;;;;;;;;5001878;28;20185;-45
2021/05/18 16:48:00;;;;;;;5.00;4.50;;;;;;;;;;5015010;28;20252;-47
2021/05/18 16:50:25;;;;;;;4.03;3.60;;;;;;;;;;5002790;28;20183;-45
2021/05/18 16:52:50;;;;;;;5.03;4.60;;;;;;;;;;5003921;28;20650;-50
2021/05/18 16:55:16;;;;;;;3.90;3.67;;;;;;;;;;4985318;28;20175;-46
2021/05/18 16:57:41;;;;;;;2.63;2.53;;;;;;;;;;5013929;28;20181;-45
2021/05/18 17:00:07;;;;;;;2.40;1.97;;;;;;;;;;5009637;28;20562;-46
2021/05/18 17:02:33;;;;;;;2.10;2.00;;;;;;;;;;5009116;28;20211;-46
2021/05/18 17:04:58;;;;;;;1.73;1.63;;;;;;;;;;5005950;28;20611;-47
2021/05/18 17:07:23;;;;;;;2.30;2.10;;;;;;;;;;5010881;28;20172;-45
2021/05/18 17:09:49;;;;;;;2.83;2.63;;;;;;;;;;5008888;28;20206;-46
2021/05/18 17:12:18;;;;;;;4.37;3.00;;;;;;;;;;4999226;28;20744;-45
2021/05/18 17:14:43;;;;;;;5.50;3.20;;;;;;;;;;4998874;28;20569;-45
2021/05/18 17:17:10;;;;;;;4.33;3.53;;;;;;;;;;4997558;28;20616;-46
2021/05/18 17:19:35;;;;;;;3.50;3.20;;;;;;;;;;4990926;28;20206;-46
2021/05/18 17:22:00;;;;;;;3.25;3.05;;;;;;;;;;4996928;28;20597;-46
2021/05/18 17:24:26;;;;;;;3.40;3.20;;;;;;;;;;4994365;28;20178;-45
2021/05/18 17:26:51;;;;;;;3.93;3.13;;;;;;;;;;4999417;28;20195;-46
2021/05/18 17:29:16;;;;;;;3.15;2.95;;;;;;;;;;5003902;28;20187;-45
2021/05/18 17:31:43;;;;;;;4.20;2.57;;;;;;;;;;5004047;28;20202;-46
2021/05/18 17:34:08;;;;;;;5.23;2.60;;;;;;;;;;5005477;28;20191;-45
2021/05/18 17:36:33;;;;;;;3.20;2.70;;;;;;;;;;5009146;28;20605;-45
2021/05/18 17:38:58;;;;;;;3.60;3.30;;;;;;;;;;5001259;28;20205;-45
2021/05/18 17:41:24;;;;;;;4.70;3.47;;;;;;;;;;5004202;28;20211;-48
2021/05/18 17:43:49;;;;;;;3.77;3.47;;;;;;;;;;5003575;28;20423;-45
2021/05/18 17:46:15;;;;;;;3.50;3.30;;;;;;;;;;4996171;28;20178;-45
2021/05/18 17:48:41;;;;;;;3.47;3.27;;;;;;;;;;4990091;28;20218;-44
2021/05/18 17:51:06;;;;;;;5.47;3.67;;;;;;;;;;4992439;28;20626;-45
2021/05/18 17:53:31;;;;;;;2.78;2.58;;;;;;;;;;4998060;28;20194;-45
2021/05/18 17:55:56;;;;;;;2.93;2.63;;;;;;;;;;5005254;28;20674;-46
2021/05/18 17:58:22;;;;;;;2.50;2.27;;;;;;;;;;5004982;28;20250;-45
2021/05/18 18:00:47;;;;;;;2.63;2.30;;;;;;;;;;5001220;28;20187;-46
2021/05/18 18:03:12;;;;;;;3.00;2.53;;;;;;;;;;5001262;28;20197;-46
2021/05/18 18:05:37;;;;;;;2.60;2.50;;;;;;;;;;4987674;28;20179;-47
2021/05/18 18:08:03;;;;;;;2.10;1.90;;;;;;;;;;5005275;28;20191;-44
2021/05/18 18:10:29;;;;;;;2.10;2.00;;;;;;;;;;4990543;28;20303;-45
2021/05/18 18:12:56;;;;;;;2.13;2.00;;;;;;;;;;5000545;28;20196;-45
2021/05/18 18:15:21;;;;;;;4.23;2.20;;;;;;;;;;5001516;28;20631;-46
2021/05/18 18:17:47;;;;;;;1.93;1.83;;;;;;;;;;5004232;28;20617;-45
2021/05/18 18:20:12;;;;;;;2.33;2.13;;;;;;;;;;4992857;28;20209;-46
2021/05/18 18:22:38;;;;;;;2.43;2.23;;;;;;;;;;5003102;28;20173;-46
2021/05/18 18:25:04;;;;;;;2.50;2.23;;;;;;;;;;4999161;28;20479;-45
2021/05/18 18:27:30;;;;;;;2.73;2.53;;;;;;;;;;4996552;28;20688;-46
2021/05/18 18:29:59;;;;;;;2.40;2.30;;;;;;;;;;5000108;28;20243;-46
2021/05/18 18:32:24;;;;;;;2.87;2.37;;;;;;;;;;4999467;28;20599;-45
2021/05/18 18:34:50;;;;;;;3.87;2.40;;;;;;;;;;4997236;28;21085;-46
2021/05/18 18:37:16;;;;;;;1.83;1.70;;;;;;;;;;5001264;28;20189;-46
2021/05/18 18:39:41;;;;;;;2.03;1.93;;;;;;;;;;4999308;28;20565;-47
2021/05/18 18:42:06;;;;;;;2.40;2.30;;;;;;;;;;5000040;28;20379;-46
2021/05/18 18:44:31;;;;;;;2.50;2.30;;;;;;;;;;4988293;28;20573;-46
2021/05/18 18:46:56;;;;;;;2.50;2.30;;;;;;;;;;4999407;28;20186;-46
2021/05/18 18:49:25;;;;;;;1.90;1.80;;;;;;;;;;5001033;28;20177;-47
2021/05/18 18:51:50;;;;;;;2.43;2.23;;;;;;;;;;5009856;28;20724;-46
2021/05/18 18:54:15;;;;;;;2.20;2.00;;;;;;;;;;4990494;28;20975;-46
2021/05/18 18:56:41;;;;;;;4.10;2.50;;;;;;;;;;5001056;28;20228;-45
2021/05/18 18:59:06;;;;;;;2.00;1.90;;;;;;;;;;4999889;28;20396;-45
2021/05/18 19:01:38;;;;;;;2.83;2.58;;;;;;;;;;4998699;28;20181;-45
2021/05/18 19:04:07;;;;;;;2.90;2.60;;;;;;;;;;4999827;28;20238;-49
2021/05/18 19:06:41;;;;;;;2.60;2.50;;;;;;;;;;4998433;28;20682;-45
2021/05/18 19:14:12;;;;;;;2.90;2.70;;;;;;;;;;5001810;28;20620;-46
2021/05/18 19:16:41;;;;;;;3.73;3.10;;;;;;;;;;5000908;28;20611;-45
2021/05/18 19:19:10;;;;;;;3.00;2.80;;;;;;;;;;4996744;28;20253;-49
2021/05/18 19:21:36;;;;;;;3.60;3.10;;;;;;;;;;4990475;28;20612;-45